createdAt,value
2022-10-02T00:01:57.967Z,81.00
2022-10-02T00:04:32.395Z,80.90
2022-10-02T00:07:06.158Z,81.00
2022-10-02T00:09:38.940Z,81.10
2022-10-02T00:12:10.792Z,81.10
2022-10-02T00:14:42.428Z,81.30
2022-10-02T00:17:17.742Z,81.40
2022-10-02T00:19:44.928Z,81.50
2022-10-02T00:22:26.088Z,81.30
2022-10-02T00:25:01.708Z,81.30
2022-10-02T00:27:42.675Z,81.10
2022-10-02T00:30:12.888Z,81.00
2022-10-02T00:32:50.305Z,80.90
2022-10-02T00:35:40.034Z,80.70
2022-10-02T00:38:18.779Z,80.70
2022-10-02T00:41:16.879Z,80.90
2022-10-02T00:43:58.330Z,80.70
2022-10-02T00:46:34.386Z,80.80
2022-10-02T00:49:18.897Z,80.70
2022-10-02T00:51:57.391Z,80.60
2022-10-02T00:54:48.077Z,80.50
2022-10-02T00:57:29.836Z,80.50
2022-10-02T01:00:05.746Z,80.40
2022-10-02T01:02:52.363Z,80.30
2022-10-02T01:05:20.331Z,80.20
2022-10-02T01:07:50.979Z,80.30
2022-10-02T01:10:22.275Z,79.90
2022-10-02T01:12:49.929Z,80.00
2022-10-02T01:15:19.292Z,80.10
2022-10-02T01:17:47.937Z,80.40
2022-10-02T01:20:17.749Z,80.30
2022-10-02T01:22:52.501Z,80.20
2022-10-02T01:25:21.234Z,80.10
2022-10-02T01:27:49.387Z,79.90
2022-10-02T01:30:18.428Z,79.90
2022-10-02T01:32:49.434Z,80.00
2022-10-02T01:35:17.753Z,80.10
2022-10-02T01:37:45.473Z,80.20
2022-10-02T01:40:26.308Z,80.20
2022-10-02T01:42:55.666Z,80.10
2022-10-02T01:45:33.886Z,80.20
2022-10-02T01:48:07.497Z,80.10
2022-10-02T01:50:47.826Z,79.90
2022-10-02T01:53:20.322Z,79.70
2022-10-02T01:56:00.695Z,79.50
2022-10-02T01:58:36.314Z,79.60
2022-10-02T02:01:14.415Z,79.50
2022-10-02T02:03:52.494Z,79.20
2022-10-02T02:06:26.833Z,79.50
2022-10-02T02:09:02.026Z,79.50
2022-10-02T02:11:31.198Z,79.70
2022-10-02T02:14:03.589Z,79.70
2022-10-02T02:16:38.191Z,79.90
2022-10-02T02:19:13.390Z,79.80
2022-10-02T02:21:43.965Z,79.90
2022-10-02T02:24:17.222Z,80.20
2022-10-02T02:26:47.349Z,80.30
2022-10-02T02:29:18.429Z,80.20
2022-10-02T02:31:50.415Z,80.30
2022-10-02T02:34:20.693Z,80.20
2022-10-02T02:36:52.281Z,80.00
2022-10-02T02:39:26.834Z,80.00
2022-10-02T02:41:58.850Z,80.10
2022-10-02T02:44:29.713Z,80.10
2022-10-02T02:47:04.668Z,79.90
2022-10-02T02:49:39.431Z,79.90
2022-10-02T02:52:12.093Z,79.40
2022-10-02T02:54:45.580Z,79.50
2022-10-02T02:57:16.460Z,79.70
2022-10-02T02:59:45.996Z,79.50
2022-10-02T03:02:13.250Z,79.30
2022-10-02T03:04:40.505Z,79.30
2022-10-02T03:07:13.472Z,79.30
2022-10-02T03:09:40.955Z,79.40
2022-10-02T03:12:21.290Z,79.50
2022-10-02T03:15:03.776Z,79.30
2022-10-02T03:17:46.042Z,79.40
2022-10-02T03:20:19.603Z,79.50
2022-10-02T03:22:56.920Z,79.60
2022-10-02T03:25:31.816Z,79.50
2022-10-02T03:28:06.885Z,79.50
2022-10-02T03:30:36.342Z,79.60
2022-10-02T03:33:05.411Z,79.50
2022-10-02T03:35:33.566Z,79.70
2022-10-02T03:38:04.909Z,79.80
2022-10-02T03:40:32.252Z,79.80
2022-10-02T03:43:01.277Z,79.60
2022-10-02T03:45:49.909Z,79.50
2022-10-02T03:48:17.639Z,79.80
2022-10-02T03:50:45.184Z,79.90
2022-10-02T03:53:15.132Z,79.80
2022-10-02T03:55:46.451Z,80.00
2022-10-02T03:58:17.552Z,79.90
2022-10-02T04:00:53.588Z,79.80
2022-10-02T04:03:25.101Z,79.80
2022-10-02T04:05:58.964Z,79.90
2022-10-02T04:08:31.526Z,80.20
2022-10-02T04:11:06.297Z,80.00
2022-10-02T04:13:39.929Z,80.00
2022-10-02T04:16:13.219Z,79.80
2022-10-02T04:18:51.160Z,79.90
2022-10-02T04:21:26.517Z,79.90
2022-10-02T04:23:59.495Z,80.30
2022-10-02T04:26:30.548Z,80.40
2022-10-02T04:29:05.170Z,80.60
2022-10-02T04:31:32.565Z,80.70
2022-10-02T04:34:02.990Z,80.80
2022-10-02T04:36:40.918Z,81.20
2022-10-02T04:39:29.431Z,81.20
2022-10-02T04:42:18.220Z,81.10
2022-10-02T04:45:18.844Z,81.10
2022-10-02T04:48:14.621Z,81.00
2022-10-02T04:50:49.750Z,80.80
2022-10-02T04:53:30.345Z,80.70
2022-10-02T04:56:12.534Z,80.60
2022-10-02T04:58:53.201Z,80.70
2022-10-02T05:01:31.839Z,80.70
2022-10-02T05:04:26.718Z,80.70
2022-10-02T05:07:08.777Z,80.40
2022-10-02T05:09:42.160Z,80.50
2022-10-02T05:12:22.860Z,80.60
2022-10-02T05:15:04.887Z,80.40
2022-10-02T05:17:45.923Z,80.40
2022-10-02T05:20:27.636Z,80.20
2022-10-02T05:23:07.837Z,80.30
2022-10-02T05:25:58.788Z,80.30
2022-10-02T05:28:41.245Z,80.50
2022-10-02T05:31:19.512Z,80.50
2022-10-02T05:34:02.075Z,80.30
2022-10-02T05:36:56.447Z,80.10
2022-10-02T05:39:28.305Z,80.10
2022-10-02T05:42:03.045Z,80.40
2022-10-02T05:44:37.526Z,80.30
2022-10-02T05:47:12.852Z,80.60
2022-10-02T05:49:48.417Z,80.50
2022-10-02T05:52:18.577Z,80.60
2022-10-02T05:54:52.744Z,80.40
2022-10-02T05:57:27.457Z,80.40
2022-10-02T06:00:04.985Z,80.60
2022-10-02T06:02:47.102Z,80.60
2022-10-02T06:05:20.926Z,80.50
2022-10-02T06:07:52.202Z,80.90
2022-10-02T06:10:23.074Z,80.80
2022-10-02T06:12:55.663Z,80.80
2022-10-02T06:15:28.318Z,81.00
2022-10-02T06:17:59.362Z,81.00
2022-10-02T06:20:33.584Z,81.20
2022-10-02T06:23:07.371Z,81.50
2022-10-02T06:25:38.057Z,81.70
2022-10-02T06:28:14.448Z,81.60
2022-10-02T06:30:45.975Z,81.50
2022-10-02T06:33:18.479Z,81.60
2022-10-02T06:36:08.925Z,81.40
2022-10-02T06:38:52.003Z,81.40
2022-10-02T06:41:29.256Z,81.20
2022-10-02T06:44:16.956Z,81.50
2022-10-02T06:46:57.023Z,81.20
2022-10-02T06:49:35.851Z,81.10
2022-10-02T06:52:16.117Z,81.10
2022-10-02T06:54:57.880Z,81.20
2022-10-02T06:57:39.542Z,81.00
2022-10-02T07:00:12.381Z,80.90
2022-10-02T07:03:06.702Z,80.70
2022-10-02T07:05:49.652Z,80.70
2022-10-02T07:08:26.233Z,80.20
2022-10-02T07:11:04.200Z,80.10
2022-10-02T07:13:42.348Z,80.20
2022-10-02T07:16:27.235Z,80.20
2022-10-02T07:19:15.705Z,80.30
2022-10-02T07:21:56.333Z,80.20
2022-10-02T07:24:44.758Z,80.10
2022-10-02T07:27:18.871Z,80.00
2022-10-02T07:29:53.045Z,80.00
2022-10-02T07:32:52.465Z,79.70
2022-10-02T07:35:34.954Z,79.30
2022-10-02T07:38:19.805Z,79.00
2022-10-02T07:41:00.183Z,78.80
2022-10-02T07:43:41.593Z,78.00
2022-10-02T07:46:17.029Z,78.20
2022-10-02T07:48:55.352Z,77.60
2022-10-02T07:51:49.658Z,76.60
2022-10-02T07:54:41.311Z,76.80
2022-10-02T07:57:24.192Z,76.50
2022-10-02T07:59:55.570Z,75.80
2022-10-02T08:02:30.235Z,75.60
2022-10-02T08:05:01.928Z,75.20
2022-10-02T08:07:30.066Z,74.80
2022-10-02T08:10:02.018Z,73.90
2022-10-02T08:12:36.489Z,73.90
2022-10-02T08:15:06.181Z,73.10
2022-10-02T08:17:39.588Z,72.20
2022-10-02T08:20:15.471Z,72.40
2022-10-02T08:22:47.303Z,71.50
2022-10-02T08:25:22.492Z,72.00
2022-10-02T08:27:55.848Z,70.50
2022-10-02T08:30:23.116Z,69.90
2022-10-02T08:32:50.425Z,70.00
2022-10-02T08:35:19.939Z,69.00
2022-10-02T08:38:02.554Z,68.70
2022-10-02T08:40:53.523Z,68.90
2022-10-02T08:44:15.729Z,68.00
2022-10-02T08:47:12.687Z,68.10
2022-10-02T08:50:01.903Z,68.20
2022-10-02T08:52:50.475Z,67.20
2022-10-02T08:56:03.110Z,66.90
2022-10-02T08:59:04.309Z,67.00
2022-10-02T09:02:27.605Z,67.00
2022-10-02T09:05:20.915Z,67.50
2022-10-02T09:08:13.470Z,67.00
2022-10-02T09:11:03.939Z,67.40
2022-10-02T09:14:25.600Z,67.50
2022-10-02T09:17:14.099Z,67.60
2022-10-02T09:19:54.216Z,67.20
2022-10-02T09:22:55.845Z,66.70
2022-10-02T09:25:35.901Z,66.80
2022-10-02T09:28:40.156Z,67.10
2022-10-02T09:31:43.522Z,66.20
2022-10-02T09:34:39.507Z,67.00
2022-10-02T09:37:41.687Z,66.70
2022-10-02T09:40:29.390Z,67.20
2022-10-02T09:43:37.747Z,67.40
2022-10-02T09:46:53.259Z,67.50
2022-10-02T09:49:46.997Z,67.40
2022-10-02T09:52:47.451Z,66.90
2022-10-02T09:55:42.906Z,66.90
2022-10-02T09:58:51.299Z,67.30
2022-10-02T10:01:54.312Z,66.90
2022-10-02T10:05:06.166Z,66.80
2022-10-02T10:08:12.688Z,66.70
2022-10-02T10:11:01.177Z,65.50
2022-10-02T10:13:53.490Z,63.60
2022-10-02T10:16:51.068Z,63.40
2022-10-02T10:19:46.774Z,61.20
2022-10-02T10:22:32.091Z,62.40
2022-10-02T10:25:25.473Z,62.10
2022-10-02T10:28:27.674Z,62.70
2022-10-02T10:31:45.918Z,63.70
2022-10-02T10:34:46.206Z,64.70
2022-10-02T10:38:02.633Z,64.20
2022-10-02T10:40:38.450Z,64.90
2022-10-02T10:43:37.482Z,65.70
2022-10-02T10:46:32.035Z,66.60
2022-10-02T10:49:31.792Z,66.20
2022-10-02T10:52:08.285Z,65.40
2022-10-02T10:54:54.049Z,64.60
2022-10-02T10:57:51.915Z,63.40
2022-10-02T11:00:23.911Z,63.60
2022-10-02T11:03:08.740Z,63.60
2022-10-02T11:06:15.795Z,64.50
2022-10-02T11:09:12.790Z,64.90
2022-10-02T11:11:57.862Z,65.50
2022-10-02T11:14:36.028Z,65.90
2022-10-02T11:17:32.522Z,66.60
2022-10-02T11:20:18.155Z,67.40
2022-10-02T11:23:09.268Z,66.70
2022-10-02T11:26:15.989Z,66.30
2022-10-02T11:29:06.982Z,65.20
2022-10-02T11:31:49.795Z,65.30
2022-10-02T11:34:43.420Z,64.80
2022-10-02T11:37:36.794Z,65.10
2022-10-02T11:40:30.058Z,65.20
2022-10-02T11:43:14.704Z,65.20
2022-10-02T11:46:02.588Z,64.90
2022-10-02T11:49:03.412Z,64.60
2022-10-02T11:51:55.437Z,65.30
2022-10-02T11:54:44.806Z,65.20
2022-10-02T11:57:24.897Z,66.00
2022-10-02T12:00:08.649Z,65.60
2022-10-02T12:02:51.802Z,64.70
2022-10-02T12:05:51.619Z,63.50
2022-10-02T12:08:31.277Z,62.60
2022-10-02T12:11:06.458Z,63.10
2022-10-02T12:13:59.777Z,62.50
2022-10-02T12:16:41.442Z,62.10
2022-10-02T12:19:25.906Z,61.90
2022-10-02T12:22:23.043Z,62.00
2022-10-02T12:25:19.488Z,60.90
2022-10-02T12:27:58.388Z,59.70
2022-10-02T12:30:31.900Z,60.20
2022-10-02T12:33:22.824Z,60.20
2022-10-02T12:36:24.292Z,59.20
2022-10-02T12:39:07.923Z,59.40
2022-10-02T12:41:53.382Z,58.60
2022-10-02T12:44:48.740Z,59.50
2022-10-02T12:47:33.132Z,58.90
2022-10-02T12:50:13.260Z,57.70
2022-10-02T12:53:13.667Z,58.30
2022-10-02T12:56:20.714Z,58.20
2022-10-02T12:58:59.798Z,58.90
2022-10-02T13:02:07.289Z,58.10
2022-10-02T13:05:04.965Z,58.60
2022-10-02T13:07:51.998Z,59.40
2022-10-02T13:10:25.216Z,58.80
2022-10-02T13:13:06.333Z,58.80
2022-10-02T13:15:44.764Z,58.60
2022-10-02T13:18:33.806Z,57.20
2022-10-02T13:21:11.758Z,57.00
2022-10-02T13:23:48.677Z,57.40
2022-10-02T13:26:27.315Z,57.70
2022-10-02T13:29:16.906Z,57.10
2022-10-02T13:31:57.687Z,58.00
2022-10-02T13:34:40.408Z,56.90
2022-10-02T13:37:18.107Z,57.90
2022-10-02T13:40:01.696Z,57.90
2022-10-02T13:42:42.169Z,57.90
2022-10-02T13:45:17.621Z,57.60
2022-10-02T13:47:56.678Z,57.10
2022-10-02T13:50:41.542Z,57.30
2022-10-02T13:53:31.665Z,57.30
2022-10-02T13:56:12.076Z,57.70
2022-10-02T13:59:02.464Z,58.20
2022-10-02T14:01:41.154Z,58.70
2022-10-02T14:04:20.738Z,58.50
2022-10-02T14:06:53.905Z,58.60
2022-10-02T14:09:35.407Z,58.90
2022-10-02T14:12:28.604Z,59.10
2022-10-02T14:15:14.190Z,57.70
2022-10-02T14:17:56.178Z,54.30
2022-10-02T14:20:36.883Z,54.10
2022-10-02T14:23:21.446Z,51.90
2022-10-02T14:26:00.156Z,51.00
2022-10-02T14:28:51.321Z,50.10
2022-10-02T14:31:50.074Z,50.00
2022-10-02T14:34:44.798Z,50.70
2022-10-02T14:37:33.067Z,50.30
2022-10-02T14:40:10.225Z,49.20
2022-10-02T14:42:50.967Z,50.90
2022-10-02T14:46:02.861Z,50.40
2022-10-02T14:48:53.679Z,50.50
2022-10-02T14:51:38.946Z,51.70
2022-10-02T14:54:26.529Z,51.70
2022-10-02T14:57:09.400Z,52.80
2022-10-02T15:00:06.606Z,52.50
2022-10-02T15:02:49.851Z,52.60
2022-10-02T15:05:39.385Z,53.20
2022-10-02T15:08:14.226Z,54.10
2022-10-02T15:10:42.495Z,54.50
2022-10-02T15:13:23.545Z,54.80
2022-10-02T15:16:14.102Z,54.30
2022-10-02T15:18:47.853Z,55.20
2022-10-02T15:21:26.855Z,55.40
2022-10-02T15:23:57.406Z,56.30
2022-10-02T15:26:40.407Z,55.90
2022-10-02T15:29:21.069Z,56.20
2022-10-02T15:32:21.635Z,56.50
2022-10-02T15:34:55.101Z,56.50
2022-10-02T15:37:28.558Z,57.00
2022-10-02T15:40:10.877Z,57.10
2022-10-02T15:42:49.502Z,57.50
2022-10-02T15:45:27.411Z,57.30
2022-10-02T15:48:25.777Z,57.40
2022-10-02T15:50:59.552Z,58.10
2022-10-02T15:53:51.634Z,58.50
2022-10-02T15:56:53.009Z,58.80
2022-10-02T15:59:49.343Z,58.70
2022-10-02T16:02:31.703Z,58.90
2022-10-02T16:05:13.475Z,59.50
2022-10-02T16:08:19.285Z,59.70
2022-10-02T16:11:19.019Z,59.80
2022-10-02T16:13:55.509Z,60.00
2022-10-02T16:16:46.183Z,60.50
2022-10-02T16:19:26.489Z,60.60
2022-10-02T16:22:10.135Z,60.70
2022-10-02T16:25:06.245Z,61.10
2022-10-02T16:27:52.331Z,61.50
2022-10-02T16:30:21.412Z,61.70
2022-10-02T16:33:05.240Z,62.40
2022-10-02T16:36:03.272Z,62.70
2022-10-02T16:38:43.784Z,62.70
2022-10-02T16:41:24.468Z,62.70
2022-10-02T16:44:03.144Z,62.90
2022-10-02T16:46:37.332Z,63.00
2022-10-02T16:49:19.573Z,63.30
2022-10-02T16:51:55.039Z,63.40
2022-10-02T16:54:30.095Z,63.90
2022-10-02T16:57:04.091Z,64.10
2022-10-02T16:59:42.819Z,64.20
2022-10-02T17:02:19.111Z,64.60
2022-10-02T17:04:59.408Z,64.80
2022-10-02T17:07:32.986Z,65.00
2022-10-02T17:10:18.185Z,65.10
2022-10-02T17:12:53.170Z,65.50
2022-10-02T17:15:29.389Z,65.60
2022-10-02T17:18:06.943Z,65.80
2022-10-02T17:20:42.344Z,66.00
2022-10-02T17:23:16.423Z,66.30
2022-10-02T17:25:49.413Z,66.40
2022-10-02T17:28:25.371Z,66.70
2022-10-02T17:31:16.312Z,67.10
2022-10-02T17:33:46.483Z,67.30
2022-10-02T17:36:20.428Z,67.50
2022-10-02T17:39:08.113Z,67.60
2022-10-02T17:41:47.037Z,67.70
2022-10-02T17:44:23.476Z,68.30
2022-10-02T17:47:27.778Z,68.60
2022-10-02T17:50:17.921Z,68.70
2022-10-02T17:53:09.465Z,69.00
2022-10-02T17:56:29.512Z,69.10
2022-10-02T17:59:16.556Z,69.20
2022-10-02T18:01:55.167Z,69.00
2022-10-02T18:04:36.097Z,69.20
2022-10-02T18:07:21.121Z,69.30
2022-10-02T18:09:57.820Z,69.70
2022-10-02T18:12:58.888Z,69.80
2022-10-02T18:15:55.570Z,70.30
2022-10-02T18:18:30.013Z,70.60
2022-10-02T18:21:13.988Z,70.40
2022-10-02T18:24:20.017Z,70.20
2022-10-02T18:27:04.045Z,70.70
2022-10-02T18:29:48.813Z,71.00
2022-10-02T18:32:34.753Z,70.90
2022-10-02T18:35:25.390Z,71.30
2022-10-02T18:38:11.733Z,71.10
2022-10-02T18:40:54.944Z,71.50
2022-10-02T18:43:37.033Z,71.50
2022-10-02T18:46:18.685Z,71.60
2022-10-02T18:49:06.154Z,71.80
2022-10-02T18:52:20.759Z,71.80
2022-10-02T18:55:03.770Z,71.50
2022-10-02T18:57:42.490Z,71.60
2022-10-02T19:00:17.059Z,71.50
2022-10-02T19:03:16.869Z,71.40
2022-10-02T19:05:50.923Z,71.60
2022-10-02T19:08:24.272Z,71.80
2022-10-02T19:10:53.105Z,72.10
2022-10-02T19:13:27.074Z,72.30
2022-10-02T19:15:58.290Z,72.30
2022-10-02T19:18:27.187Z,72.20
2022-10-02T19:20:58.733Z,72.20
2022-10-02T19:23:30.973Z,71.90
2022-10-02T19:26:04.749Z,72.00
2022-10-02T19:28:37.337Z,72.00
2022-10-02T19:31:07.437Z,71.90
2022-10-02T19:33:42.070Z,71.90
2022-10-02T19:36:16.613Z,72.10
2022-10-02T19:38:50.036Z,72.00
2022-10-02T19:41:19.452Z,72.50
2022-10-02T19:43:54.357Z,72.60
2022-10-02T19:46:30.026Z,72.80
2022-10-02T19:48:59.557Z,73.00
2022-10-02T19:51:26.898Z,73.00
2022-10-02T19:53:59.373Z,72.80
2022-10-02T19:56:33.078Z,73.10
2022-10-02T19:59:04.115Z,73.20
2022-10-02T20:01:42.098Z,73.10
2022-10-02T20:04:16.127Z,73.40
2022-10-02T20:06:48.395Z,73.30
2022-10-02T20:09:20.098Z,73.50
2022-10-02T20:11:51.704Z,73.50
2022-10-02T20:14:24.023Z,73.40
2022-10-02T20:17:09.637Z,73.60
2022-10-02T20:19:42.398Z,73.50
2022-10-02T20:22:17.982Z,73.40
2022-10-02T20:24:51.355Z,73.70
2022-10-02T20:27:25.177Z,73.50
2022-10-02T20:29:57.659Z,73.20
2022-10-02T20:32:29.899Z,73.20
2022-10-02T20:35:01.022Z,73.30
2022-10-02T20:37:31.082Z,72.90
2022-10-02T20:40:06.319Z,73.20
2022-10-02T20:42:43.836Z,73.40
2022-10-02T20:45:13.757Z,73.30
2022-10-02T20:48:08.780Z,73.20
2022-10-02T20:50:41.116Z,73.20
2022-10-02T20:53:44.772Z,73.40
2022-10-02T20:56:29.105Z,73.40
2022-10-02T20:59:09.329Z,73.60
2022-10-02T21:01:45.804Z,73.50
2022-10-02T21:04:45.669Z,73.30
2022-10-02T21:07:36.133Z,73.30
2022-10-02T21:10:37.709Z,73.40
2022-10-02T21:13:26.341Z,73.20
2022-10-02T21:16:29.268Z,73.30
2022-10-02T21:19:26.901Z,73.40
2022-10-02T21:22:25.258Z,73.50
2022-10-02T21:25:25.867Z,73.70
2022-10-02T21:28:30.075Z,73.70
2022-10-02T21:31:11.528Z,73.70
2022-10-02T21:33:40.853Z,73.50
2022-10-02T21:36:15.904Z,73.80
2022-10-02T21:39:15.364Z,73.70
2022-10-02T21:42:22.289Z,74.00
2022-10-02T21:45:32.881Z,74.20
2022-10-02T21:48:47.754Z,74.20
2022-10-02T21:51:49.036Z,74.30
2022-10-02T21:54:50.443Z,74.00
2022-10-02T21:57:45.845Z,73.80
2022-10-02T22:00:16.652Z,73.90
2022-10-02T22:03:12.311Z,74.20
2022-10-02T22:06:16.612Z,74.40
2022-10-02T22:09:03.258Z,74.10
2022-10-02T22:11:39.571Z,74.20
2022-10-02T22:14:12.665Z,74.10
2022-10-02T22:16:52.277Z,74.20
2022-10-02T22:19:38.857Z,74.50
2022-10-02T22:22:24.185Z,74.60
2022-10-02T22:25:03.672Z,74.70
2022-10-02T22:27:53.294Z,74.80
2022-10-02T22:30:24.734Z,74.50
2022-10-02T22:33:23.065Z,74.60
2022-10-02T22:36:20.748Z,74.90
2022-10-02T22:38:54.365Z,74.90
2022-10-02T22:41:27.383Z,75.10
2022-10-02T22:43:58.633Z,75.20
2022-10-02T22:46:39.117Z,75.10
2022-10-02T22:49:18.512Z,75.10
2022-10-02T22:51:54.885Z,74.90
2022-10-02T22:54:32.930Z,75.20
2022-10-02T22:57:12.765Z,74.90
2022-10-02T22:59:44.817Z,74.60
2022-10-02T23:02:19.831Z,74.70
2022-10-02T23:04:52.753Z,75.30
2022-10-02T23:07:26.910Z,75.50
2022-10-02T23:10:01.469Z,76.00
2022-10-02T23:12:38.763Z,75.80
2022-10-02T23:15:28.295Z,75.80
2022-10-02T23:17:59.277Z,76.20
2022-10-02T23:20:31.629Z,76.20
2022-10-02T23:23:05.708Z,76.20
2022-10-02T23:25:42.453Z,75.90
2022-10-02T23:28:15.807Z,75.70
2022-10-02T23:30:46.952Z,75.70
2022-10-02T23:33:22.435Z,75.70
2022-10-02T23:35:56.295Z,75.90
2022-10-02T23:38:30.715Z,76.20
2022-10-02T23:41:27.121Z,76.60
2022-10-02T23:44:05.808Z,76.70
2022-10-02T23:46:36.866Z,76.90
2022-10-02T23:49:04.382Z,76.70
2022-10-02T23:51:45.396Z,76.80
2022-10-02T23:54:35.041Z,76.70
2022-10-02T23:57:20.170Z,76.70
